createdAt,value
2023-04-11T00:00:00.522Z,98748.52
2023-04-11T00:01:57.671Z,98748.25
2023-04-11T00:05:11.757Z,98745.56
2023-04-11T00:06:53.213Z,98743.16
2023-04-11T00:08:32.378Z,98738.45
2023-04-11T00:10:15.877Z,98735.90
2023-04-11T00:11:48.154Z,98739.17
2023-04-11T00:13:31.803Z,98734.98
2023-04-11T00:15:04.317Z,98731.96
2023-04-11T00:16:58.202Z,98730.52
2023-04-11T00:18:42.230Z,98731.64
2023-04-11T00:20:25.746Z,98731.05
2023-04-11T00:22:18.198Z,98728.23
2023-04-11T00:23:52.526Z,98725.60
2023-04-11T00:25:34.966Z,98723.14
2023-04-11T00:27:08.850Z,98726.34
2023-04-11T00:28:38.691Z,98725.95
2023-04-11T00:30:21.825Z,98725.54
2023-04-11T00:31:56.345Z,98722.30
2023-04-11T00:33:18.576Z,98719.35
2023-04-11T00:34:50.910Z,98719.95
2023-04-11T00:36:11.112Z,98715.09
2023-04-11T00:37:55.365Z,98719.60
2023-04-11T00:39:35.235Z,98716.05
2023-04-11T00:41:09.415Z,98711.05
2023-04-11T00:42:41.661Z,98707.35
2023-04-11T00:44:08.733Z,98706.02
2023-04-11T00:45:41.232Z,98700.30
2023-04-11T00:47:24.895Z,98700.74
2023-04-11T00:48:48.232Z,98699.70
2023-04-11T00:50:16.359Z,98699.80
2023-04-11T00:51:48.811Z,98698.69
2023-04-11T00:53:32.334Z,98696.25
2023-04-11T00:55:15.950Z,98694.77
2023-04-11T00:57:02.337Z,98691.89
2023-04-11T00:58:42.012Z,98694.27
2023-04-11T01:00:14.952Z,98692.11
2023-04-11T01:02:00.964Z,98692.14
2023-04-11T01:03:31.069Z,98686.27
2023-04-11T01:05:02.983Z,98685.59
2023-04-11T01:06:50.152Z,98686.27
2023-04-11T01:08:33.645Z,98686.36
2023-04-11T01:10:08.196Z,98681.59
2023-04-11T01:11:43.350Z,98677.19
2023-04-11T01:13:05.937Z,98677.65
2023-04-11T01:14:40.724Z,98675.95
2023-04-11T01:16:15.731Z,98676.67
2023-04-11T01:17:48.257Z,98673.10
2023-04-11T01:19:20.925Z,98673.61
2023-04-11T01:21:00.645Z,98677.27
2023-04-11T01:22:40.786Z,98670.96
2023-04-11T01:24:12.326Z,98673.02
2023-04-11T01:25:43.489Z,98675.71
2023-04-11T01:27:04.682Z,98675.80
2023-04-11T01:28:27.675Z,98676.52
2023-04-11T01:29:55.738Z,98676.95
2023-04-11T01:31:37.483Z,98675.34
2023-04-11T01:33:11.403Z,98669.19
2023-04-11T01:34:43.863Z,98670.15
2023-04-11T01:36:35.897Z,98667.92
2023-04-11T01:38:16.335Z,98666.11
2023-04-11T01:40:04.199Z,98662.77
2023-04-11T01:41:36.884Z,98641.08
2023-04-11T01:43:18.218Z,98661.66
2023-04-11T01:44:50.625Z,98657.66
2023-04-11T01:46:19.796Z,98650.16
2023-04-11T01:47:59.296Z,98650.11
2023-04-11T01:49:43.306Z,98644.06
2023-04-11T01:51:22.234Z,98644.73
2023-04-11T01:53:01.308Z,98645.11
2023-04-11T01:54:29.558Z,98634.02
2023-04-11T01:56:12.667Z,98641.46
2023-04-11T01:57:47.278Z,98635.68
2023-04-11T01:59:27.910Z,98638.05
2023-04-11T02:00:48.416Z,98637.38
2023-04-11T02:02:31.812Z,98633.19
2023-04-11T02:04:15.671Z,98628.40
2023-04-11T02:06:03.052Z,98626.06
2023-04-11T02:07:55.084Z,98620.84
2023-04-11T02:09:29.140Z,98617.54
2023-04-11T02:10:49.926Z,98615.61
2023-04-11T02:12:21.588Z,98615.11
2023-04-11T02:14:04.989Z,98611.63
2023-04-11T02:15:39.674Z,98603.89
2023-04-11T02:17:15.887Z,98614.30
2023-04-11T02:18:48.184Z,98598.73
2023-04-11T02:20:11.021Z,98606.66
2023-04-11T02:21:45.744Z,98606.70
2023-04-11T02:23:18.322Z,98605.27
2023-04-11T02:25:01.140Z,98599.90
2023-04-11T02:26:37.700Z,98599.13
2023-04-11T02:28:22.487Z,98599.77
2023-04-11T02:30:06.045Z,98592.90
2023-04-11T02:31:38.738Z,98589.42
2023-04-11T02:33:18.017Z,98589.07
2023-04-11T02:35:07.320Z,98583.92
2023-04-11T02:36:41.643Z,98584.64
2023-04-11T02:38:13.294Z,98583.58
2023-04-11T02:39:43.219Z,98581.20
2023-04-11T02:41:17.455Z,98578.29
2023-04-11T02:43:09.790Z,98576.80
2023-04-11T02:44:55.220Z,98574.80
2023-04-11T02:46:34.963Z,98572.75
2023-04-11T02:48:08.019Z,98573.91
2023-04-11T02:49:43.207Z,98570.85
2023-04-11T02:51:28.039Z,98566.95
2023-04-11T02:53:11.786Z,98566.12
2023-04-11T02:54:44.356Z,98563.88
2023-04-11T02:56:29.849Z,98561.83
2023-04-11T02:57:57.841Z,98563.08
2023-04-11T02:59:22.626Z,98561.30
2023-04-11T03:00:54.439Z,98560.91
2023-04-11T03:02:28.863Z,98561.86
2023-04-11T03:04:17.338Z,98561.63
2023-04-11T03:06:04.440Z,98549.15
2023-04-11T03:07:50.663Z,98563.70
2023-04-11T03:09:11.126Z,98559.64
2023-04-11T03:10:55.060Z,98562.18
2023-04-11T03:12:27.948Z,98564.67
2023-04-11T03:14:04.692Z,98561.04
2023-04-11T03:15:37.217Z,98559.48
2023-04-11T03:17:23.149Z,98560.69
2023-04-11T03:19:08.743Z,98560.86
2023-04-11T03:20:40.656Z,98557.23
2023-04-11T03:22:23.850Z,98557.69
2023-04-11T03:24:15.766Z,98541.53
2023-04-11T03:25:42.058Z,98556.27
2023-04-11T03:27:13.546Z,98555.42
2023-04-11T03:28:58.994Z,98541.09
2023-04-11T03:30:39.864Z,98545.93
2023-04-11T03:32:23.270Z,98545.54
2023-04-11T03:34:11.202Z,98547.84
2023-04-11T03:35:54.936Z,98540.84
2023-04-11T03:37:26.822Z,98545.09
2023-04-11T03:39:06.576Z,98544.70
2023-04-11T03:40:41.068Z,98540.71
2023-04-11T03:42:40.057Z,98546.59
2023-04-11T03:44:13.262Z,98542.90
2023-04-11T03:45:45.345Z,98545.07
2023-04-11T03:47:22.020Z,98545.54
2023-04-11T03:49:11.279Z,98543.66
2023-04-11T03:50:45.837Z,98543.23
2023-04-11T03:52:22.096Z,98541.90
2023-04-11T03:54:06.579Z,98539.73
2023-04-11T03:55:53.798Z,98538.33
2023-04-11T03:57:18.038Z,98535.02
2023-04-11T03:59:01.752Z,98532.41
2023-04-11T04:00:40.679Z,98523.52
2023-04-11T04:02:15.653Z,98522.76
2023-04-11T04:04:03.628Z,98524.52
2023-04-11T04:05:56.463Z,98524.58
2023-04-11T04:07:40.238Z,98518.85
2023-04-11T04:09:28.185Z,98518.66
2023-04-11T04:11:11.999Z,98520.32
2023-04-11T04:12:46.637Z,98513.84
2023-04-11T04:14:15.844Z,98515.61
2023-04-11T04:16:06.804Z,98514.95
2023-04-11T04:17:39.406Z,98512.76
2023-04-11T04:19:31.942Z,98513.52
2023-04-11T04:21:15.539Z,98509.44
2023-04-11T04:23:00.619Z,98505.44
2023-04-11T04:25:31.831Z,98496.92
2023-04-11T04:27:04.736Z,98495.20
2023-04-11T04:28:55.847Z,98489.68
2023-04-11T04:30:40.074Z,98487.05
2023-04-11T04:32:16.209Z,98491.45
2023-04-11T04:33:53.209Z,98490.70
2023-04-11T04:35:40.352Z,98481.34
2023-04-11T04:37:21.255Z,98488.13
2023-04-11T04:38:55.743Z,98482.96
2023-04-11T04:40:42.731Z,98483.75
2023-04-11T04:42:35.100Z,98482.26
2023-04-11T04:44:20.671Z,98478.86
2023-04-11T04:45:53.862Z,98479.59
2023-04-11T04:47:41.643Z,98470.20
2023-04-11T04:49:13.243Z,98472.09
2023-04-11T04:50:45.343Z,98462.33
2023-04-11T04:52:28.900Z,98462.23
2023-04-11T04:53:57.082Z,98463.60
2023-04-11T04:55:32.215Z,98452.55
2023-04-11T04:57:09.950Z,98458.15
2023-04-11T04:58:49.952Z,98456.34
2023-04-11T05:00:23.173Z,98455.89
2023-04-11T05:02:07.310Z,98452.51
2023-04-11T05:03:39.690Z,98452.05
2023-04-11T05:05:20.848Z,98449.51
2023-04-11T05:07:11.255Z,98450.35
2023-04-11T05:08:44.102Z,98450.43
2023-04-11T05:10:17.054Z,98448.48
2023-04-11T05:11:45.196Z,98450.14
2023-04-11T05:13:10.784Z,98452.23
2023-04-11T05:14:54.695Z,98450.35
2023-04-11T05:16:26.625Z,98445.55
2023-04-11T05:17:52.759Z,98445.67
2023-04-11T05:19:27.063Z,98443.66
2023-04-11T05:20:47.876Z,98445.17
2023-04-11T05:22:26.602Z,98442.71
2023-04-11T05:24:02.610Z,98439.62
2023-04-11T05:25:44.013Z,98438.56
2023-04-11T05:27:18.964Z,98435.90
2023-04-11T05:28:51.784Z,98435.90
2023-04-11T05:30:20.991Z,98435.84
2023-04-11T05:31:44.164Z,98436.35
2023-04-11T05:33:18.295Z,98434.80
2023-04-11T05:35:02.475Z,98431.70
2023-04-11T05:36:50.064Z,98424.09
2023-04-11T05:38:13.873Z,98424.87
2023-04-11T05:40:00.165Z,98423.39
2023-04-11T05:41:43.924Z,98419.67
2023-04-11T05:43:26.962Z,98411.33
2023-04-11T05:45:10.536Z,98411.95
2023-04-11T05:46:43.188Z,98405.67
2023-04-11T05:48:16.053Z,98405.25
2023-04-11T05:49:48.504Z,98401.79
2023-04-11T05:51:15.563Z,98403.10
2023-04-11T05:52:46.633Z,98400.42
2023-04-11T05:54:29.946Z,98398.81
2023-04-11T05:56:05.313Z,98399.79
2023-04-11T05:57:37.998Z,98392.46
2023-04-11T05:59:05.470Z,98391.63
2023-04-11T06:00:33.465Z,98384.74
2023-04-11T06:02:07.910Z,98381.50
2023-04-11T06:03:47.960Z,98379.70
2023-04-11T06:05:21.733Z,98384.77
2023-04-11T06:06:56.361Z,98382.17
2023-04-11T06:08:39.722Z,98381.36
2023-04-11T06:10:02.492Z,98381.66
2023-04-11T06:11:30.214Z,98372.59
2023-04-11T06:13:13.427Z,98370.52
2023-04-11T06:14:48.284Z,98366.27
2023-04-11T06:16:32.921Z,98367.42
2023-04-11T06:18:16.557Z,98370.84
2023-04-11T06:19:41.938Z,98369.38
2023-04-11T06:21:21.770Z,98368.04
2023-04-11T06:22:56.393Z,98363.56
2023-04-11T06:24:30.965Z,98372.23
2023-04-11T06:26:06.663Z,98365.71
2023-04-11T06:27:30.504Z,98365.33
2023-04-11T06:29:04.758Z,98367.80
2023-04-11T06:30:32.225Z,98368.57
2023-04-11T06:32:04.406Z,98355.83
2023-04-11T06:33:36.432Z,98365.35
2023-04-11T06:35:19.600Z,98356.44
2023-04-11T06:36:59.163Z,98365.69
2023-04-11T06:38:40.386Z,98364.61
2023-04-11T06:40:19.822Z,98367.82
2023-04-11T06:41:52.480Z,98367.58
2023-04-11T06:43:41.576Z,98363.78
2023-04-11T06:45:13.319Z,98360.27
2023-04-11T06:46:48.257Z,98353.00
2023-04-11T06:48:20.305Z,98349.40
2023-04-11T06:50:05.380Z,98351.19
2023-04-11T06:51:49.219Z,98352.93
2023-04-11T06:53:23.420Z,98355.14
2023-04-11T06:55:06.854Z,98354.54
2023-04-11T06:56:39.008Z,98352.88
2023-04-11T06:58:12.962Z,98352.98
2023-04-11T06:59:56.923Z,98348.97
2023-04-11T07:01:39.842Z,98342.38
2023-04-11T07:03:07.912Z,98346.84
2023-04-11T07:04:52.115Z,98344.04
2023-04-11T07:06:15.292Z,98344.33
2023-04-11T07:08:03.269Z,98340.34
2023-04-11T07:09:47.185Z,98339.22
2023-04-11T07:11:14.449Z,98338.20
2023-04-11T07:12:37.344Z,98334.58
2023-04-11T07:14:16.540Z,98331.68
2023-04-11T07:15:48.593Z,98326.91
2023-04-11T07:17:18.389Z,98324.96
2023-04-11T07:19:02.301Z,98327.70
2023-04-11T07:20:46.171Z,98320.90
2023-04-11T07:22:17.800Z,98318.61
2023-04-11T07:24:03.202Z,98319.83
2023-04-11T07:25:36.241Z,98314.87
2023-04-11T07:26:57.921Z,98312.45
2023-04-11T07:28:31.673Z,98313.96
2023-04-11T07:30:08.375Z,98312.94
2023-04-11T07:31:52.447Z,98310.28
2023-04-11T07:33:27.261Z,98310.45
2023-04-11T07:35:10.868Z,98305.20
2023-04-11T07:36:33.597Z,98304.33
2023-04-11T07:38:05.577Z,98306.56
2023-04-11T07:39:39.145Z,98302.64
2023-04-11T07:41:22.388Z,98302.57
2023-04-11T07:43:03.121Z,98296.91
2023-04-11T07:44:54.803Z,98300.33
2023-04-11T07:46:19.529Z,98300.61
2023-04-11T07:48:03.129Z,98292.46
2023-04-11T07:49:47.067Z,98288.14
2023-04-11T07:51:21.069Z,98285.48
2023-04-11T07:53:00.653Z,98288.27
2023-04-11T07:54:44.597Z,98269.39
2023-04-11T07:56:18.529Z,98279.70
2023-04-11T07:58:12.212Z,98276.54
2023-04-11T07:59:37.795Z,98278.02
2023-04-11T08:01:16.420Z,98275.66
2023-04-11T08:03:00.267Z,98271.45
2023-04-11T08:04:46.914Z,98272.92
2023-04-11T08:06:21.455Z,98270.83
2023-04-11T08:07:42.016Z,98260.02
2023-04-11T08:09:13.991Z,98259.60
2023-04-11T08:11:02.212Z,98251.27
2023-04-11T08:12:34.856Z,98242.60
2023-04-11T08:14:18.893Z,98240.02
2023-04-11T08:15:58.337Z,98233.50
2023-04-11T08:17:42.216Z,98232.34
2023-04-11T08:19:11.730Z,98227.77
2023-04-11T08:21:04.222Z,98228.69
2023-04-11T08:22:50.297Z,98227.04
2023-04-11T08:24:33.642Z,98223.80
2023-04-11T08:26:06.266Z,98226.29
2023-04-11T08:27:50.252Z,98222.50
2023-04-11T08:29:33.698Z,98225.39
2023-04-11T08:31:18.112Z,98223.92
2023-04-11T08:32:41.499Z,98223.85
2023-04-11T08:34:06.681Z,98222.11
2023-04-11T08:35:30.124Z,98221.63
2023-04-11T08:37:13.427Z,98218.30
2023-04-11T08:38:58.801Z,98217.63
2023-04-11T08:40:37.985Z,98217.86
2023-04-11T08:42:16.581Z,98214.35
2023-04-11T08:43:40.270Z,98211.42
2023-04-11T08:45:26.809Z,98206.05
2023-04-11T08:47:09.937Z,98211.27
2023-04-11T08:48:53.948Z,98201.92
2023-04-11T08:50:39.843Z,98192.61
2023-04-11T08:52:09.843Z,98201.77
2023-04-11T08:53:42.376Z,98194.73
2023-04-11T08:55:13.599Z,98191.90
2023-04-11T08:56:57.340Z,98197.17
2023-04-11T08:58:25.108Z,98183.27
2023-04-11T08:59:59.510Z,98190.48
2023-04-11T09:01:27.287Z,98188.84
2023-04-11T09:03:11.690Z,98181.89
2023-04-11T09:04:55.796Z,98173.48
2023-04-11T09:06:30.014Z,98176.40
2023-04-11T09:08:13.206Z,98177.41
2023-04-11T09:09:49.122Z,98178.23
2023-04-11T09:11:23.021Z,98172.52
2023-04-11T09:12:55.110Z,98176.21
2023-04-11T09:14:27.324Z,98176.25
2023-04-11T09:15:52.579Z,98179.14
2023-04-11T09:17:24.093Z,98176.40
2023-04-11T09:18:56.357Z,98176.15
2023-04-11T09:20:30.478Z,98173.48
2023-04-11T09:22:15.760Z,98172.38
2023-04-11T09:24:00.679Z,98169.31
2023-04-11T09:25:34.685Z,98175.04
2023-04-11T09:27:07.190Z,98172.84
2023-04-11T09:28:54.099Z,98170.20
2023-04-11T09:30:33.485Z,98171.73
2023-04-11T09:32:07.658Z,98170.08
2023-04-11T09:34:00.123Z,98164.05
2023-04-11T09:35:43.905Z,98163.36
2023-04-11T09:37:18.553Z,98153.38
2023-04-11T09:38:46.462Z,98155.07
2023-04-11T09:40:18.412Z,98152.79
2023-04-11T09:42:02.325Z,98149.92
2023-04-11T09:43:24.904Z,98150.34
2023-04-11T09:44:59.107Z,98145.58
2023-04-11T09:46:51.757Z,98138.91
2023-04-11T09:48:29.330Z,98139.94
2023-04-11T09:50:11.260Z,98138.02
2023-04-11T09:51:55.105Z,98138.42
2023-04-11T09:53:27.097Z,98133.83
2023-04-11T09:55:10.927Z,98131.59
2023-04-11T09:56:50.990Z,98134.96
2023-04-11T09:58:31.273Z,98130.42
2023-04-11T10:00:23.481Z,98121.46
2023-04-11T10:01:58.027Z,98114.70
2023-04-11T10:03:31.368Z,98114.14
2023-04-11T10:05:15.098Z,98109.42
2023-04-11T10:06:49.819Z,98110.05
2023-04-11T10:08:21.664Z,98108.92
2023-04-11T10:10:05.324Z,98108.99
2023-04-11T10:11:39.590Z,98107.64
2023-04-11T10:12:59.488Z,98102.30
2023-04-11T10:14:19.428Z,98103.13
2023-04-11T10:16:02.999Z,98098.14
2023-04-11T10:17:45.319Z,98091.48
2023-04-11T10:19:16.856Z,98096.33
2023-04-11T10:20:39.868Z,98092.80
2023-04-11T10:22:11.898Z,98094.55
2023-04-11T10:23:44.303Z,98097.05
2023-04-11T10:25:06.982Z,98093.85
2023-04-11T10:26:26.745Z,98089.39
2023-04-11T10:27:59.686Z,98089.23
2023-04-11T10:29:33.789Z,98083.60
2023-04-11T10:31:08.484Z,98080.68
2023-04-11T10:32:57.715Z,98077.92
2023-04-11T10:34:18.012Z,98082.29
2023-04-11T10:36:02.335Z,98083.80
2023-04-11T10:37:34.687Z,98075.45
2023-04-11T10:39:18.084Z,98075.61
2023-04-11T10:40:57.748Z,98067.23
2023-04-11T10:42:49.930Z,98066.85
2023-04-11T10:44:23.893Z,98059.70
2023-04-11T10:45:59.266Z,98057.48
2023-04-11T10:47:33.606Z,98065.23
2023-04-11T10:49:07.510Z,98057.63
2023-04-11T10:50:47.357Z,98049.36
2023-04-11T10:52:20.773Z,98049.39
2023-04-11T10:53:55.672Z,98049.30
2023-04-11T10:55:35.218Z,98048.99
2023-04-11T10:57:18.792Z,98051.52
2023-04-11T10:59:01.922Z,98044.77
2023-04-11T11:00:35.150Z,98036.00
2023-04-11T11:02:10.377Z,98041.88
2023-04-11T11:03:42.882Z,98030.68
2023-04-11T11:05:26.036Z,98034.50
2023-04-11T11:06:58.587Z,98034.42
2023-04-11T11:08:30.495Z,98033.43
2023-04-11T11:09:52.792Z,98034.95
2023-04-11T11:11:34.722Z,98039.62
2023-04-11T11:13:14.208Z,98031.90
2023-04-11T11:14:44.456Z,98035.90
2023-04-11T11:16:04.734Z,98038.71
2023-04-11T11:17:48.612Z,98022.77
2023-04-11T11:19:22.880Z,98026.93
2023-04-11T11:20:55.475Z,98021.23
2023-04-11T11:22:17.891Z,98023.37
2023-04-11T11:23:52.748Z,98017.67
2023-04-11T11:25:24.532Z,98006.30
2023-04-11T11:26:59.205Z,98011.14
2023-04-11T11:30:13.326Z,98016.79
2023-04-11T11:31:38.473Z,98011.59
2023-04-11T11:33:17.393Z,98009.73
2023-04-11T11:35:02.263Z,98007.90
2023-04-11T11:36:42.442Z,98007.81
2023-04-11T11:38:30.269Z,98005.77
2023-04-11T11:40:05.159Z,98011.13
2023-04-11T11:41:39.783Z,98014.23
2023-04-11T11:43:18.637Z,98003.35
2023-04-11T11:45:12.256Z,98009.55
2023-04-11T11:47:05.313Z,98011.30
2023-04-11T11:48:34.941Z,98004.52
2023-04-11T11:50:07.722Z,98002.75
2023-04-11T11:51:30.077Z,98008.77
2023-04-11T11:52:53.528Z,97996.92
2023-04-11T11:54:18.060Z,98000.95
2023-04-11T11:55:54.459Z,97992.94
2023-04-11T11:57:22.580Z,97997.42
2023-04-11T11:58:58.904Z,97998.38
2023-04-11T12:00:42.667Z,97997.02
2023-04-11T12:02:14.563Z,97989.78
2023-04-11T12:03:50.577Z,97992.08
2023-04-11T12:05:34.734Z,97995.27
2023-04-11T12:06:58.065Z,97995.54
2023-04-11T12:08:42.635Z,97989.29
2023-04-11T12:10:14.443Z,97988.48
2023-04-11T12:11:47.248Z,97984.32
2023-04-11T12:13:17.005Z,97987.11
2023-04-11T12:14:57.654Z,97979.97
2023-04-11T12:16:20.008Z,97979.53
2023-04-11T12:17:52.201Z,97980.88
2023-04-11T12:19:12.550Z,97979.80
2023-04-11T12:20:46.906Z,97975.27
2023-04-11T12:22:35.236Z,97973.69
2023-04-11T12:24:07.154Z,97968.83
2023-04-11T12:25:46.530Z,97976.17
2023-04-11T12:27:18.863Z,97967.31
2023-04-11T12:29:06.951Z,97968.71
2023-04-11T12:30:46.623Z,97959.52
2023-04-11T12:32:38.561Z,97957.31
2023-04-11T12:34:08.784Z,97959.89
2023-04-11T12:36:01.355Z,97954.34
2023-04-11T12:37:33.196Z,97950.23
2023-04-11T12:39:03.162Z,97940.02
2023-04-11T12:40:44.165Z,97951.09
2023-04-11T12:42:18.608Z,97958.42
2023-04-11T12:44:00.807Z,97945.83
2023-04-11T12:45:45.073Z,97953.15
2023-04-11T12:47:16.995Z,97945.73
2023-04-11T12:48:59.284Z,97943.05
2023-04-11T12:50:32.171Z,97936.05
2023-04-11T12:52:15.726Z,97936.40
2023-04-11T12:53:55.318Z,97937.16
2023-04-11T12:55:30.397Z,97935.14
2023-04-11T12:57:06.820Z,97928.03
2023-04-11T12:58:39.845Z,97937.20
2023-04-11T13:00:03.873Z,97936.65
2023-04-11T13:01:36.155Z,97932.05
2023-04-11T13:03:08.413Z,97927.65
2023-04-11T13:04:52.805Z,97920.29
2023-04-11T13:06:37.148Z,97923.23
2023-04-11T13:07:59.526Z,97915.08
2023-04-11T13:09:30.043Z,97921.13
2023-04-11T13:11:05.661Z,97913.78
2023-04-11T13:12:52.579Z,97908.52
2023-04-11T13:14:35.909Z,97888.45
2023-04-11T13:16:19.466Z,97909.77
2023-04-11T13:17:51.613Z,97896.73
2023-04-11T13:19:35.328Z,97909.90
2023-04-11T13:21:07.523Z,97906.69
2023-04-11T13:22:27.653Z,97898.98
2023-04-11T13:23:59.623Z,97891.38
2023-04-11T13:25:43.280Z,97899.50
2023-04-11T13:27:15.457Z,97905.41
2023-04-11T13:28:45.681Z,97899.82
2023-04-11T13:30:09.070Z,97903.42
2023-04-11T13:31:53.126Z,97896.58
2023-04-11T13:33:25.232Z,97901.63
2023-04-11T13:35:06.739Z,97895.30
2023-04-11T13:36:41.970Z,97897.08
2023-04-11T13:38:25.239Z,97896.96
2023-04-11T13:39:56.105Z,97893.79
2023-04-11T13:41:37.273Z,97889.92
2023-04-11T13:43:21.663Z,97886.02
2023-04-11T13:44:50.097Z,97878.57
2023-04-11T13:46:17.962Z,97878.77
2023-04-11T13:47:52.779Z,97873.48
2023-04-11T13:49:36.518Z,97876.70
2023-04-11T13:50:59.878Z,97869.48
2023-04-11T13:52:33.009Z,97873.17
2023-04-11T13:54:06.658Z,97871.69
2023-04-11T13:55:53.635Z,97869.34
2023-04-11T13:57:27.792Z,97867.42
2023-04-11T13:58:48.711Z,97865.14
2023-04-11T14:00:21.716Z,97855.91
2023-04-11T14:01:42.840Z,97861.09
2023-04-11T14:03:22.408Z,97862.02
2023-04-11T14:04:54.320Z,97857.27
2023-04-11T14:06:25.825Z,97857.86
2023-04-11T14:07:58.450Z,97851.55
2023-04-11T14:09:32.955Z,97851.23
2023-04-11T14:11:05.336Z,97852.15
2023-04-11T14:12:58.313Z,97853.66
2023-04-11T14:14:42.160Z,97848.11
2023-04-11T14:16:14.303Z,97844.67
2023-04-11T14:17:49.055Z,97838.96
2023-04-11T14:19:38.707Z,97838.45
2023-04-11T14:21:22.723Z,97846.00
2023-04-11T14:23:01.955Z,97837.88
2023-04-11T14:24:34.150Z,97836.13
2023-04-11T14:26:08.086Z,97833.55
2023-04-11T14:27:28.692Z,97832.28
2023-04-11T14:29:02.111Z,97833.70
2023-04-11T14:30:45.757Z,97831.38
2023-04-11T14:32:13.477Z,97823.80
2023-04-11T14:33:34.001Z,97822.35
2023-04-11T14:35:07.673Z,97820.00
2023-04-11T14:36:35.395Z,97822.81
2023-04-11T14:38:07.672Z,97820.92
2023-04-11T14:39:27.710Z,97818.69
2023-04-11T14:41:00.036Z,97820.91
2023-04-11T14:42:32.092Z,97819.95
2023-04-11T14:44:15.974Z,97822.71
2023-04-11T14:46:07.290Z,97820.35
2023-04-11T14:47:51.633Z,97818.06
2023-04-11T14:49:23.180Z,97818.99
2023-04-11T14:50:58.706Z,97805.55
2023-04-11T14:52:32.860Z,97817.54
2023-04-11T14:54:16.040Z,97814.98
2023-04-11T14:55:36.704Z,97816.07
2023-04-11T14:56:59.855Z,97810.28
2023-04-11T14:58:33.495Z,97809.11
2023-04-11T15:00:17.730Z,97804.70
2023-04-11T15:01:57.472Z,97810.84
2023-04-11T15:03:29.483Z,97806.08
2023-04-11T15:04:58.034Z,97811.35
2023-04-11T15:06:18.391Z,97810.27
2023-04-11T15:07:44.320Z,97808.34
2023-04-11T15:09:19.373Z,97811.40
2023-04-11T15:10:45.008Z,97813.31
2023-04-11T15:12:28.516Z,97813.56
2023-04-11T15:14:02.679Z,97812.51
2023-04-11T15:15:41.563Z,97814.27
2023-04-11T15:17:03.917Z,97808.30
2023-04-11T15:18:35.447Z,97804.58
2023-04-11T15:20:19.236Z,97800.12
2023-04-11T15:22:00.269Z,97803.85
2023-04-11T15:23:32.420Z,97801.69
2023-04-11T15:25:06.868Z,97796.53
2023-04-11T15:26:40.823Z,97795.55
2023-04-11T15:28:14.607Z,97794.39
2023-04-11T15:29:58.654Z,97792.50
2023-04-11T15:31:42.932Z,97792.37
2023-04-11T15:33:27.288Z,97791.33
2023-04-11T15:35:11.054Z,97784.61
2023-04-11T15:36:35.781Z,97786.36
2023-04-11T15:38:16.632Z,97781.98
2023-04-11T15:39:49.157Z,97781.02
2023-04-11T15:41:11.715Z,97780.56
2023-04-11T15:42:55.658Z,97777.70
2023-04-11T15:44:18.346Z,97773.16
2023-04-11T15:46:03.212Z,97771.06
2023-04-11T15:47:37.663Z,97751.62
2023-04-11T15:49:00.482Z,97764.66
2023-04-11T15:50:48.572Z,97760.36
2023-04-11T15:52:16.614Z,97759.15
2023-04-11T15:53:58.559Z,97759.08
2023-04-11T15:55:52.305Z,97744.09
2023-04-11T15:57:26.746Z,97758.73
2023-04-11T15:59:11.208Z,97760.34
2023-04-11T16:00:53.584Z,97761.00
2023-04-11T16:02:45.796Z,97759.39
2023-04-11T16:04:18.228Z,97760.38
2023-04-11T16:05:58.176Z,97757.09
2023-04-11T16:07:41.802Z,97767.80
2023-04-11T16:09:34.264Z,97766.21
2023-04-11T16:10:57.754Z,97767.27
2023-04-11T16:12:18.065Z,97768.22
2023-04-11T16:13:50.159Z,97767.45
2023-04-11T16:15:21.808Z,97768.13
2023-04-11T16:16:54.233Z,97751.45
2023-04-11T16:18:40.089Z,97765.88
2023-04-11T16:20:19.215Z,97773.77
2023-04-11T16:21:54.483Z,97773.88
2023-04-11T16:23:28.198Z,97778.26
2023-04-11T16:25:00.699Z,97788.21
2023-04-11T16:26:32.980Z,97807.63
2023-04-11T16:28:16.584Z,97809.49
2023-04-11T16:30:02.681Z,97808.16
2023-04-11T16:31:46.390Z,97808.52
2023-04-11T16:33:11.165Z,97808.08
2023-04-11T16:34:39.385Z,97805.64
2023-04-11T16:36:13.611Z,97815.09
2023-04-11T16:37:41.053Z,97817.83
2023-04-11T16:39:24.820Z,97816.95
2023-04-11T16:41:09.952Z,97815.80
2023-04-11T16:42:42.602Z,97814.99
2023-04-11T16:44:17.151Z,97816.27
2023-04-11T16:45:47.463Z,97826.38
2023-04-11T16:47:12.879Z,97839.59
2023-04-11T16:48:41.392Z,97849.95
2023-04-11T16:50:25.323Z,97850.27
2023-04-11T16:52:05.211Z,97839.09
2023-04-11T16:53:49.661Z,97834.54
2023-04-11T16:55:20.014Z,97841.77
2023-04-11T16:57:02.334Z,97845.48
2023-04-11T16:58:32.966Z,97846.07
2023-04-11T17:00:22.583Z,97850.87
2023-04-11T17:02:04.012Z,97844.56
2023-04-11T17:03:39.476Z,97854.56
2023-04-11T17:05:19.409Z,97852.46
2023-04-11T17:06:54.061Z,97860.67
2023-04-11T17:08:15.015Z,97861.63
2023-04-11T17:09:48.496Z,97863.97
2023-04-11T17:11:40.098Z,97844.69
2023-04-11T17:13:23.911Z,97864.56
2023-04-11T17:15:08.222Z,97862.92
2023-04-11T17:17:01.407Z,97866.61
2023-04-11T17:18:31.729Z,97871.08
2023-04-11T17:19:57.195Z,97874.09
2023-04-11T17:21:40.844Z,97891.11
2023-04-11T17:23:29.012Z,97894.99
2023-04-11T17:25:21.399Z,97894.12
2023-04-11T17:29:07.261Z,97882.90
2023-04-11T17:30:57.594Z,97876.98
2023-04-11T17:32:35.283Z,97875.63
2023-04-11T17:34:19.855Z,97879.88
2023-04-11T17:36:14.439Z,97883.75
2023-04-11T17:37:39.726Z,97886.73
2023-04-11T17:39:18.962Z,97898.71
2023-04-11T17:40:39.195Z,97909.71
2023-04-11T17:42:14.332Z,97914.73
2023-04-11T17:43:46.833Z,97918.91
2023-04-11T17:45:33.300Z,97920.00
2023-04-11T17:47:17.313Z,97918.22
2023-04-11T17:48:41.335Z,97910.96
2023-04-11T17:50:24.788Z,97912.39
2023-04-11T17:52:09.785Z,97914.04
2023-04-11T17:53:59.403Z,97920.39
2023-04-11T17:57:38.369Z,97922.73
2023-04-11T17:59:13.148Z,97925.76
2023-04-11T18:01:01.257Z,97924.33
2023-04-11T18:02:45.854Z,97930.27
2023-04-11T18:04:21.120Z,97926.29
2023-04-11T18:06:15.367Z,97927.27
2023-04-11T18:07:49.236Z,97935.10
2023-04-11T18:09:23.321Z,97938.07
2023-04-11T18:11:08.714Z,97943.09
2023-04-11T18:12:56.906Z,97940.65
2023-04-11T18:14:40.759Z,97938.20
2023-04-11T18:16:24.565Z,97945.55
2023-04-11T18:18:18.361Z,97951.97
2023-04-11T18:20:10.536Z,97921.98
2023-04-11T18:21:50.462Z,97950.56
2023-04-11T18:23:34.719Z,97953.66
2023-04-11T18:25:18.332Z,97956.77
2023-04-11T18:26:39.161Z,97957.73
2023-04-11T18:28:11.229Z,97955.58
2023-04-11T18:29:55.126Z,97953.38
2023-04-11T18:31:49.403Z,97956.91
2023-04-11T18:33:24.004Z,97957.41
2023-04-11T18:35:04.059Z,97951.05
2023-04-11T18:36:48.416Z,97962.19
2023-04-11T18:38:23.355Z,97960.35
2023-04-11T18:39:46.552Z,97956.10
2023-04-11T18:41:08.062Z,97958.82
2023-04-11T18:42:58.325Z,97960.18
2023-04-11T18:44:21.313Z,97959.98
2023-04-11T18:45:56.749Z,97943.11
2023-04-11T18:47:28.559Z,97958.83
2023-04-11T18:49:08.197Z,97962.85
2023-04-11T18:50:58.987Z,97965.14
2023-04-11T18:52:38.984Z,97967.98
2023-04-11T18:54:22.566Z,97967.60
2023-04-11T18:55:48.815Z,97964.33
2023-04-11T18:57:29.547Z,97969.13
2023-04-11T18:59:08.538Z,97967.73
2023-04-11T19:01:14.125Z,97965.02
2023-04-11T19:03:01.742Z,97959.31
2023-04-11T19:04:51.899Z,97951.27
2023-04-11T19:06:24.309Z,97948.77